ASA69 PAJN-PAKT
Flight info
| Callsign | ASA69 |
|---|---|
| Flight time | 0h 40m |
| Altitude | 27000 |
| Route | GLAZZ1 LVD DOOZI |
| Aircraft | B738/M-SDE2E3FGHIRWXY/LB1 |
Departure
| Time | 2026-04-17 17:38 |
|---|---|
| Airport | Juneau International Airport (PAJN) |
Arrival
| Time | 2026-04-17 18:18 |
|---|---|
| Airport | Ketchikan International Airport (PAKT) |
| Time | Latitude | Longitude | Altitude | Speed | Heading |
|---|---|---|---|---|---|
| 2026-04-17 17:21 | 58.35824 | -134.58302 | 33 ft | 0 kts | 360° |
| 2026-04-17 17:23 | 58.35808 | -134.58302 | 33 ft | 4 kts | 8° |
| 2026-04-17 17:23 | 58.35787 | -134.58321 | 30 ft | 2 kts | 52° |
| 2026-04-17 17:24 | 58.35776 | -134.58359 | 30 ft | 4 kts | 90° |
| 2026-04-17 17:24 | 58.35781 | -134.58407 | 30 ft | 3 kts | 105° |
| 2026-04-17 17:24 | 58.35782 | -134.58413 | 30 ft | 0 kts | 105° |
| 2026-04-17 17:34 | 58.35775 | -134.58368 | 30 ft | 8 kts | 108° |
| 2026-04-17 17:34 | 58.35728 | -134.58320 | 32 ft | 9 kts | 201° |
| 2026-04-17 17:34 | 58.35718 | -134.58422 | 33 ft | 8 kts | 282° |
| 2026-04-17 17:34 | 58.35731 | -134.58531 | 32 ft | 8 kts | 283° |
| 2026-04-17 17:35 | 58.35745 | -134.58636 | 33 ft | 8 kts | 285° |
| 2026-04-17 17:35 | 58.35760 | -134.58738 | 32 ft | 9 kts | 286° |
| 2026-04-17 17:35 | 58.35782 | -134.58881 | 33 ft | 13 kts | 286° |
| 2026-04-17 17:35 | 58.35807 | -134.59072 | 33 ft | 16 kts | 286° |
| 2026-04-17 17:36 | 58.35838 | -134.59282 | 33 ft | 16 kts | 285° |
| 2026-04-17 17:36 | 58.35866 | -134.59484 | 33 ft | 16 kts | 284° |
| 2026-04-17 17:36 | 58.35832 | -134.59652 | 32 ft | 15 kts | 204° |
| 2026-04-17 17:36 | 58.35776 | -134.59633 | 34 ft | 3 kts | 118° |
| 2026-04-17 17:37 | 58.35768 | -134.59591 | 34 ft | 5 kts | 105° |
| 2026-04-17 17:37 | 58.35759 | -134.59528 | 34 ft | 8 kts | 105° |
| 2026-04-17 17:37 | 58.35687 | -134.59016 | 34 ft | 76 kts | 105° |
| 2026-04-17 17:37 | 58.35494 | -134.57621 | 35 ft | 139 kts | 105° |
| 2026-04-17 17:38 | 58.35191 | -134.55599 | 442 ft | 162 kts | 107° |
| 2026-04-17 17:38 | 58.34887 | -134.53601 | 1509 ft | 158 kts | 108° |
| 2026-04-17 17:38 | 58.34326 | -134.51745 | 2000 ft | 175 kts | 133° |
| 2026-04-17 17:38 | 58.33342 | -134.50056 | 2241 ft | 204 kts | 135° |
| 2026-04-17 17:39 | 58.32278 | -134.48070 | 2653 ft | 221 kts | 135° |
| 2026-04-17 17:39 | 58.31174 | -134.45981 | 3377 ft | 228 kts | 136° |
| 2026-04-17 17:39 | 58.30028 | -134.43758 | 3791 ft | 245 kts | 134° |
| 2026-04-17 17:39 | 58.28852 | -134.41298 | 4399 ft | 255 kts | 134° |
| 2026-04-17 17:40 | 58.27661 | -134.38782 | 5313 ft | 258 kts | 134° |
| 2026-04-17 17:40 | 58.26450 | -134.36241 | 6198 ft | 261 kts | 135° |
| 2026-04-17 17:40 | 58.25216 | -134.33662 | 6985 ft | 267 kts | 135° |
| 2026-04-17 17:40 | 58.23936 | -134.31053 | 7707 ft | 274 kts | 137° |
| 2026-04-17 17:41 | 58.22593 | -134.28431 | 8447 ft | 280 kts | 137° |
| 2026-04-17 17:41 | 58.21220 | -134.25765 | 9214 ft | 285 kts | 137° |
| 2026-04-17 17:41 | 58.19816 | -134.23035 | 9955 ft | 292 kts | 138° |
| 2026-04-17 17:41 | 58.18254 | -134.20488 | 10420 ft | 305 kts | 149° |
| 2026-04-17 17:42 | 58.16387 | -134.18298 | 10614 ft | 327 kts | 153° |
| 2026-04-17 17:42 | 58.14374 | -134.16045 | 11030 ft | 343 kts | 153° |
| 2026-04-17 17:42 | 58.12342 | -134.13712 | 11714 ft | 349 kts | 152° |
| 2026-04-17 17:42 | 58.10261 | -134.11296 | 12483 ft | 353 kts | 152° |
| 2026-04-17 17:43 | 58.08125 | -134.08815 | 13250 ft | 358 kts | 152° |
| 2026-04-17 17:43 | 58.06022 | -134.06372 | 13971 ft | 362 kts | 152° |
| 2026-04-17 17:43 | 58.03855 | -134.03856 | 14600 ft | 368 kts | 152° |
| 2026-04-17 17:43 | 58.01664 | -134.01312 | 15283 ft | 372 kts | 152° |
| 2026-04-17 17:44 | 57.99450 | -133.98743 | 15949 ft | 376 kts | 152° |
| 2026-04-17 17:44 | 57.97212 | -133.96151 | 16607 ft | 380 kts | 152° |
| 2026-04-17 17:44 | 57.94946 | -133.93535 | 17257 ft | 384 kts | 152° |
| 2026-04-17 17:44 | 57.92610 | -133.91069 | 17884 ft | 386 kts | 161° |
| 2026-04-17 17:45 | 57.90085 | -133.89368 | 18540 ft | 386 kts | 166° |
| 2026-04-17 17:45 | 57.87505 | -133.87883 | 19113 ft | 389 kts | 167° |
| 2026-04-17 17:45 | 57.84895 | -133.86440 | 19666 ft | 393 kts | 168° |
| 2026-04-17 17:45 | 57.82263 | -133.84983 | 20210 ft | 397 kts | 168° |
| 2026-04-17 17:46 | 57.79603 | -133.83488 | 20777 ft | 400 kts | 167° |
| 2026-04-17 17:46 | 57.76937 | -133.81965 | 21337 ft | 403 kts | 167° |
| 2026-04-17 17:46 | 57.74238 | -133.80406 | 21862 ft | 407 kts | 167° |
| 2026-04-17 17:46 | 57.71519 | -133.78825 | 22379 ft | 411 kts | 167° |
| 2026-04-17 17:47 | 57.68775 | -133.77225 | 22914 ft | 414 kts | 167° |
| 2026-04-17 17:47 | 57.66021 | -133.75615 | 23518 ft | 415 kts | 167° |
| 2026-04-17 17:47 | 57.63272 | -133.74008 | 24159 ft | 413 kts | 167° |
| 2026-04-17 17:47 | 57.60533 | -133.72408 | 24755 ft | 411 kts | 167° |
| 2026-04-17 17:48 | 57.57804 | -133.70817 | 25324 ft | 410 kts | 167° |
| 2026-04-17 17:48 | 57.55084 | -133.69236 | 25888 ft | 410 kts | 168° |
| 2026-04-17 17:48 | 57.53281 | -133.68190 | 26245 ft | 409 kts | 168° |
| 2026-04-17 17:48 | 57.50568 | -133.66619 | 26796 ft | 409 kts | 168° |
| 2026-04-17 17:49 | 57.47850 | -133.65048 | 27240 ft | 409 kts | 168° |
| 2026-04-17 17:49 | 57.45133 | -133.63480 | 27209 ft | 408 kts | 168° |
| 2026-04-17 17:49 | 57.42432 | -133.61922 | 27236 ft | 407 kts | 168° |
| 2026-04-17 17:49 | 57.39725 | -133.60365 | 27242 ft | 408 kts | 168° |
| 2026-04-17 17:50 | 57.37016 | -133.58809 | 27245 ft | 408 kts | 168° |
| 2026-04-17 17:50 | 57.34304 | -133.57254 | 27247 ft | 408 kts | 168° |
| 2026-04-17 17:50 | 57.31589 | -133.55700 | 27249 ft | 408 kts | 168° |
| 2026-04-17 17:50 | 57.28879 | -133.54150 | 27243 ft | 408 kts | 168° |
| 2026-04-17 17:51 | 57.26166 | -133.52600 | 27237 ft | 408 kts | 168° |
| 2026-04-17 17:51 | 57.23455 | -133.51054 | 27220 ft | 407 kts | 167° |
| 2026-04-17 17:51 | 57.20779 | -133.49527 | 27232 ft | 398 kts | 167° |
| 2026-04-17 17:51 | 57.18163 | -133.48035 | 27235 ft | 392 kts | 167° |
| 2026-04-17 17:52 | 57.15545 | -133.46549 | 27249 ft | 395 kts | 167° |
| 2026-04-17 17:52 | 57.12911 | -133.45060 | 27256 ft | 397 kts | 167° |
| 2026-04-17 17:52 | 57.10269 | -133.43568 | 27248 ft | 398 kts | 167° |
| 2026-04-17 17:52 | 57.07619 | -133.42072 | 27259 ft | 399 kts | 167° |
| 2026-04-17 17:53 | 57.04969 | -133.40578 | 27261 ft | 399 kts | 167° |
| 2026-04-17 17:53 | 57.02313 | -133.39081 | 27249 ft | 399 kts | 167° |
| 2026-04-17 17:53 | 56.99667 | -133.37591 | 27237 ft | 396 kts | 167° |
| 2026-04-17 17:53 | 56.97077 | -133.36130 | 27235 ft | 383 kts | 167° |
| 2026-04-17 17:54 | 56.94563 | -133.34713 | 27254 ft | 375 kts | 168° |
| 2026-04-17 17:54 | 56.92069 | -133.33316 | 27265 ft | 374 kts | 168° |
| 2026-04-17 17:54 | 56.89571 | -133.31923 | 27222 ft | 376 kts | 168° |
| 2026-04-17 17:54 | 56.87064 | -133.30527 | 26929 ft | 375 kts | 168° |
| 2026-04-17 17:55 | 56.84580 | -133.29141 | 26582 ft | 373 kts | 168° |
| 2026-04-17 17:55 | 56.82112 | -133.27766 | 26244 ft | 369 kts | 168° |
| 2026-04-17 17:55 | 56.79668 | -133.26406 | 25872 ft | 367 kts | 167° |
| 2026-04-17 17:55 | 56.77234 | -133.25053 | 25508 ft | 364 kts | 167° |
| 2026-04-17 17:56 | 56.74816 | -133.23713 | 25153 ft | 362 kts | 167° |
| 2026-04-17 17:56 | 56.72409 | -133.22380 | 24794 ft | 360 kts | 167° |
| 2026-04-17 17:56 | 56.70012 | -133.21054 | 24425 ft | 358 kts | 167° |
| 2026-04-17 17:56 | 56.67667 | -133.19758 | 24078 ft | 356 kts | 167° |
| 2026-04-17 17:57 | 56.65301 | -133.18452 | 23697 ft | 355 kts | 167° |
| 2026-04-17 17:57 | 56.62944 | -133.17154 | 23292 ft | 352 kts | 167° |
| 2026-04-17 17:57 | 56.60606 | -133.15867 | 22901 ft | 350 kts | 167° |
| 2026-04-17 17:57 | 56.58289 | -133.14592 | 22548 ft | 347 kts | 167° |
| 2026-04-17 17:58 | 56.55983 | -133.13326 | 22181 ft | 345 kts | 167° |
| 2026-04-17 17:58 | 56.53693 | -133.12070 | 21826 ft | 342 kts | 167° |
| 2026-04-17 17:58 | 56.51419 | -133.10825 | 21475 ft | 340 kts | 167° |
| 2026-04-17 17:58 | 56.49165 | -133.09592 | 21123 ft | 338 kts | 167° |
| 2026-04-17 17:59 | 56.46925 | -133.08331 | 20775 ft | 337 kts | 162° |
| 2026-04-17 17:59 | 56.44828 | -133.06403 | 20423 ft | 339 kts | 153° |
| 2026-04-17 17:59 | 56.42820 | -133.04173 | 20075 ft | 338 kts | 151° |
| 2026-04-17 17:59 | 56.40839 | -133.01900 | 19729 ft | 336 kts | 151° |
| 2026-04-17 18:00 | 56.38873 | -132.99643 | 19387 ft | 335 kts | 151° |
| 2026-04-17 18:00 | 56.36908 | -132.97407 | 19046 ft | 333 kts | 151° |
| 2026-04-17 18:00 | 56.34946 | -132.95193 | 18707 ft | 331 kts | 151° |
| 2026-04-17 18:00 | 56.32993 | -132.93008 | 18342 ft | 330 kts | 151° |
| 2026-04-17 18:01 | 56.31044 | -132.90838 | 17967 ft | 328 kts | 151° |
| 2026-04-17 18:01 | 56.29104 | -132.88687 | 17616 ft | 327 kts | 152° |
| 2026-04-17 18:01 | 56.27175 | -132.86554 | 17269 ft | 325 kts | 152° |
| 2026-04-17 18:01 | 56.25256 | -132.84437 | 16933 ft | 323 kts | 152° |
| 2026-04-17 18:02 | 56.23432 | -132.82429 | 16607 ft | 321 kts | 152° |
| 2026-04-17 18:02 | 56.21533 | -132.80341 | 16269 ft | 319 kts | 152° |
| 2026-04-17 18:02 | 56.19640 | -132.78264 | 15781 ft | 322 kts | 152° |
| 2026-04-17 18:02 | 56.17717 | -132.76157 | 15369 ft | 323 kts | 151° |
| 2026-04-17 18:03 | 56.15823 | -132.74083 | 14994 ft | 323 kts | 151° |
| 2026-04-17 18:03 | 56.13907 | -132.71988 | 14649 ft | 322 kts | 151° |
| 2026-04-17 18:03 | 56.11994 | -132.69897 | 14310 ft | 321 kts | 151° |
| 2026-04-17 18:03 | 56.10090 | -132.67819 | 13952 ft | 320 kts | 151° |
| 2026-04-17 18:04 | 56.08189 | -132.65746 | 13577 ft | 319 kts | 151° |
| 2026-04-17 18:04 | 56.06300 | -132.63688 | 13216 ft | 317 kts | 151° |
| 2026-04-17 18:04 | 56.04425 | -132.61649 | 12877 ft | 314 kts | 151° |
| 2026-04-17 18:04 | 56.02561 | -132.59623 | 12541 ft | 312 kts | 151° |
| 2026-04-17 18:05 | 56.00716 | -132.57622 | 12205 ft | 309 kts | 152° |
| 2026-04-17 18:05 | 55.98882 | -132.55633 | 11880 ft | 306 kts | 152° |
| 2026-04-17 18:05 | 55.97094 | -132.53695 | 11540 ft | 296 kts | 152° |
| 2026-04-17 18:05 | 55.95359 | -132.51817 | 11240 ft | 287 kts | 152° |
| 2026-04-17 18:06 | 55.93679 | -132.50000 | 10937 ft | 279 kts | 152° |
| 2026-04-17 18:06 | 55.92041 | -132.48232 | 10633 ft | 271 kts | 152° |
| 2026-04-17 18:06 | 55.90445 | -132.46512 | 10352 ft | 267 kts | 152° |
| 2026-04-17 18:06 | 55.88865 | -132.44811 | 10179 ft | 261 kts | 152° |
| 2026-04-17 18:07 | 55.87315 | -132.43144 | 10060 ft | 262 kts | 152° |
| 2026-04-17 18:07 | 55.85722 | -132.41437 | 9882 ft | 273 kts | 152° |
| 2026-04-17 18:07 | 55.84082 | -132.39679 | 9567 ft | 275 kts | 152° |
| 2026-04-17 18:07 | 55.82451 | -132.37929 | 9258 ft | 273 kts | 152° |
| 2026-04-17 18:08 | 55.80834 | -132.36194 | 8966 ft | 271 kts | 152° |
| 2026-04-17 18:08 | 55.79228 | -132.34473 | 8691 ft | 268 kts | 152° |
| 2026-04-17 18:08 | 55.77636 | -132.32769 | 8418 ft | 266 kts | 152° |
| 2026-04-17 18:08 | 55.76057 | -132.31081 | 8131 ft | 265 kts | 152° |
| 2026-04-17 18:09 | 55.74483 | -132.29400 | 7849 ft | 263 kts | 152° |
| 2026-04-17 18:09 | 55.72920 | -132.27732 | 7580 ft | 262 kts | 152° |
| 2026-04-17 18:09 | 55.71362 | -132.26072 | 7301 ft | 261 kts | 152° |
| 2026-04-17 18:09 | 55.69811 | -132.24419 | 7024 ft | 260 kts | 152° |
| 2026-04-17 18:10 | 55.68263 | -132.22772 | 6745 ft | 259 kts | 152° |
| 2026-04-17 18:10 | 55.66724 | -132.21136 | 6472 ft | 257 kts | 152° |
| 2026-04-17 18:10 | 55.65211 | -132.19529 | 6367 ft | 251 kts | 152° |
| 2026-04-17 18:10 | 55.63721 | -132.17949 | 6246 ft | 249 kts | 152° |
| 2026-04-17 18:11 | 55.62288 | -132.16211 | 6144 ft | 252 kts | 145° |
| 2026-04-17 18:11 | 55.60925 | -132.14279 | 6024 ft | 247 kts | 144° |
| 2026-04-17 18:11 | 55.59625 | -132.12417 | 5859 ft | 236 kts | 144° |
| 2026-04-17 18:11 | 55.58375 | -132.10643 | 5647 ft | 226 kts | 144° |
| 2026-04-17 18:12 | 55.57190 | -132.08878 | 5419 ft | 220 kts | 139° |
| 2026-04-17 18:12 | 55.56109 | -132.06996 | 5164 ft | 217 kts | 138° |
| 2026-04-17 18:12 | 55.55057 | -132.05131 | 4957 ft | 213 kts | 138° |
| 2026-04-17 18:12 | 55.54002 | -132.03281 | 4744 ft | 215 kts | 138° |
| 2026-04-17 18:13 | 55.52933 | -132.01423 | 4516 ft | 216 kts | 138° |
| 2026-04-17 18:13 | 55.51866 | -131.99567 | 4264 ft | 215 kts | 137° |
| 2026-04-17 18:13 | 55.50837 | -131.97699 | 4120 ft | 213 kts | 137° |
| 2026-04-17 18:13 | 55.49777 | -131.95829 | 3983 ft | 218 kts | 138° |
| 2026-04-17 18:14 | 55.48696 | -131.93962 | 3702 ft | 216 kts | 138° |
| 2026-04-17 18:14 | 55.47630 | -131.92133 | 3409 ft | 211 kts | 137° |
| 2026-04-17 18:14 | 55.46592 | -131.90351 | 3117 ft | 206 kts | 137° |
| 2026-04-17 18:14 | 55.45582 | -131.88617 | 2838 ft | 200 kts | 137° |
| 2026-04-17 18:15 | 55.44609 | -131.86947 | 2573 ft | 191 kts | 137° |
| 2026-04-17 18:15 | 55.43696 | -131.85376 | 2304 ft | 176 kts | 137° |
| 2026-04-17 18:15 | 55.42854 | -131.83930 | 2064 ft | 163 kts | 137° |
| 2026-04-17 18:15 | 55.42062 | -131.82568 | 1880 ft | 155 kts | 137° |
| 2026-04-17 18:16 | 55.41290 | -131.81242 | 1624 ft | 150 kts | 137° |
| 2026-04-17 18:16 | 55.40571 | -131.80005 | 1442 ft | 142 kts | 137° |
| 2026-04-17 18:16 | 55.39874 | -131.78808 | 1210 ft | 139 kts | 137° |
| 2026-04-17 18:16 | 55.39191 | -131.77634 | 991 ft | 135 kts | 136° |
| 2026-04-17 18:17 | 55.38518 | -131.76475 | 807 ft | 136 kts | 136° |
| 2026-04-17 18:17 | 55.37176 | -131.74151 | 377 ft | 132 kts | 136° |
| 2026-04-17 18:17 | 55.36545 | -131.73079 | 220 ft | 126 kts | 136° |
| 2026-04-17 18:18 | 55.35938 | -131.72038 | 99 ft | 113 kts | 135° |
| 2026-04-17 18:18 | 55.35481 | -131.71247 | 99 ft | 80 kts | 135° |
| 2026-04-17 18:18 | 55.35191 | -131.70751 | 99 ft | 31 kts | 135° |
| 2026-04-17 18:18 | 55.35044 | -131.70496 | 97 ft | 29 kts | 136° |
| 2026-04-17 18:19 | 55.34910 | -131.70266 | 99 ft | 19 kts | 135° |
| 2026-04-17 18:19 | 55.34868 | -131.70077 | 100 ft | 18 kts | 59° |
| 2026-04-17 18:19 | 55.34972 | -131.70097 | 100 ft | 17 kts | 317° |
| 2026-04-17 18:19 | 55.35059 | -131.70240 | 99 ft | 17 kts | 317° |
| 2026-04-17 18:20 | 55.35154 | -131.70392 | 92 ft | 21 kts | 317° |
| 2026-04-17 18:20 | 55.35284 | -131.70600 | 61 ft | 29 kts | 317° |
| 2026-04-17 18:20 | 55.35392 | -131.70780 | 47 ft | 11 kts | 316° |
| 2026-04-17 18:20 | 55.35416 | -131.70821 | 44 ft | 6 kts | 315° |
| 2026-04-17 18:21 | 55.35462 | -131.70901 | 40 ft | 10 kts | 315° |
| 2026-04-17 18:21 | 55.35512 | -131.70987 | 39 ft | 10 kts | 316° |
| 2026-04-17 18:21 | 55.35566 | -131.71061 | 41 ft | 10 kts | 339° |
| 2026-04-17 18:21 | 55.35614 | -131.71021 | 40 ft | 5 kts | 43° |
| 2026-04-17 18:22 | 55.35628 | -131.70996 | 39 ft | 0 kts | 45° |
| 2026-04-17 18:22 | 55.35630 | -131.70994 | 40 ft | 0 kts | 45° |